createdAt,value
2023-02-25T00:02:41.865Z,97145.17
2023-02-25T00:06:39.877Z,97155.88
2023-02-25T00:10:37.846Z,97153.06
2023-02-25T00:14:38.281Z,97141.59
2023-02-25T00:18:37.713Z,97130.47
2023-02-25T00:22:35.778Z,97115.36
2023-02-25T00:26:34.780Z,97110.96
2023-02-25T00:30:32.701Z,97104.16
2023-02-25T00:34:30.743Z,97098.36
2023-02-25T00:38:29.751Z,97081.52
2023-02-25T00:42:33.702Z,97074.51
2023-02-25T00:46:32.872Z,97074.52
2023-02-25T00:50:30.693Z,97071.29
2023-02-25T00:54:30.747Z,97069.90
2023-02-25T00:58:28.713Z,97069.98
2023-02-25T01:02:27.749Z,97065.30
2023-02-25T01:06:25.684Z,97051.77
2023-02-25T01:10:24.667Z,97052.25
2023-02-25T01:14:26.675Z,97046.60
2023-02-25T01:18:26.727Z,97047.08
2023-02-25T01:22:24.650Z,97036.43
2023-02-25T01:26:24.946Z,97030.64
2023-02-25T01:30:22.654Z,97025.92
2023-02-25T01:34:22.670Z,97024.55
2023-02-25T01:38:20.629Z,97021.09
2023-02-25T01:42:27.650Z,97011.25
2023-02-25T01:46:26.006Z,97000.41
2023-02-25T01:50:23.839Z,96990.30
2023-02-25T01:54:23.642Z,96969.39
2023-02-25T01:58:22.652Z,96955.27
2023-02-25T02:02:23.699Z,96946.39
2023-02-25T02:06:35.616Z,96949.94
2023-02-25T02:10:33.588Z,96953.02
2023-02-25T02:14:35.655Z,96937.15
2023-02-25T02:18:35.604Z,96934.27
2023-02-25T02:22:48.638Z,96932.02
2023-02-25T02:27:04.582Z,96918.16
2023-02-25T02:31:33.660Z,96901.67
2023-02-25T02:35:41.529Z,96904.23
2023-02-25T02:39:43.615Z,96897.58
2023-02-25T02:44:15.587Z,96923.20
2023-02-25T02:48:17.665Z,96939.71
2023-02-25T02:52:26.510Z,96936.61
2023-02-25T02:56:28.609Z,96923.96
2023-02-25T03:00:33.554Z,96919.47
2023-02-25T03:04:35.624Z,96912.48
2023-02-25T03:08:43.516Z,96899.83
2023-02-25T03:12:41.510Z,96895.69
2023-02-25T03:16:45.579Z,96890.86
2023-02-25T03:20:50.532Z,96883.71
2023-02-25T03:25:08.511Z,96887.06
2023-02-25T03:29:06.532Z,96879.02
2023-02-25T03:33:10.497Z,96868.04
2023-02-25T03:37:13.548Z,96868.98
2023-02-25T03:41:17.566Z,96883.89
2023-02-25T03:45:19.522Z,96887.25
2023-02-25T03:49:18.704Z,96882.02
2023-02-25T03:53:16.541Z,96880.38
2023-02-25T03:57:23.509Z,96869.75
2023-02-25T04:01:25.536Z,96864.91
2023-02-25T04:05:23.511Z,96861.92
2023-02-25T04:09:21.526Z,96857.23
2023-02-25T04:13:19.502Z,96851.79
2023-02-25T04:17:18.501Z,96838.69
2023-02-25T04:21:16.483Z,96829.89
2023-02-25T04:25:14.458Z,96833.63
2023-02-25T04:29:12.425Z,96826.52
2023-02-25T04:33:10.523Z,96840.04
2023-02-25T04:37:08.409Z,96855.64
2023-02-25T04:41:06.427Z,96860.11
2023-02-25T04:45:04.518Z,96860.06
2023-02-25T04:49:02.413Z,96853.17
2023-02-25T04:53:00.388Z,96854.50
2023-02-25T04:56:58.411Z,96852.13
2023-02-25T05:00:56.371Z,96854.02
2023-02-25T05:04:55.436Z,96847.02
2023-02-25T05:08:53.403Z,96847.25
2023-02-25T05:12:51.435Z,96842.81
2023-02-25T05:16:49.501Z,96845.98
2023-02-25T05:20:47.509Z,96848.23
2023-02-25T05:24:45.332Z,96848.46
2023-02-25T05:28:43.382Z,96846.25
2023-02-25T05:32:41.558Z,96840.38
2023-02-25T05:36:39.433Z,96842.67
2023-02-25T05:40:39.339Z,96850.77
2023-02-25T05:44:37.383Z,96855.73
2023-02-25T05:48:35.354Z,96863.45
2023-02-25T05:52:33.387Z,96856.93
2023-02-25T05:56:35.344Z,96856.24
2023-02-25T06:00:33.343Z,96856.02
2023-02-25T06:04:31.347Z,96849.44
2023-02-25T06:08:29.355Z,96841.93
2023-02-25T06:12:27.377Z,96843.60
2023-02-25T06:16:25.675Z,96856.55
2023-02-25T06:20:24.310Z,96852.11
2023-02-25T06:24:23.315Z,96855.54
2023-02-25T06:28:21.264Z,96866.89
2023-02-25T06:32:19.418Z,96876.43
2023-02-25T06:36:17.247Z,96875.52
2023-02-25T06:40:15.338Z,96879.09
2023-02-25T06:44:15.714Z,96878.08
2023-02-25T06:48:13.276Z,96881.53
2023-02-25T06:52:11.354Z,96888.36
2023-02-25T06:56:09.290Z,96889.63
2023-02-25T07:00:07.303Z,96896.98
2023-02-25T07:04:05.368Z,96905.67
2023-02-25T07:08:03.268Z,96904.73
2023-02-25T07:12:01.246Z,96903.02
2023-02-25T07:15:59.237Z,96908.78
2023-02-25T07:19:58.322Z,96908.13
2023-02-25T07:23:57.204Z,96909.23
2023-02-25T07:27:57.189Z,96904.88
2023-02-25T07:31:55.490Z,96914.94
2023-02-25T07:35:53.311Z,96919.11
2023-02-25T07:39:53.247Z,96927.52
2023-02-25T07:43:51.326Z,96929.73
2023-02-25T07:47:49.219Z,96941.25
2023-02-25T07:51:48.302Z,96944.59
2023-02-25T07:55:46.278Z,96937.87
2023-02-25T07:59:44.177Z,96937.12
2023-02-25T08:03:42.166Z,96931.52
2023-02-25T08:07:40.232Z,96931.48
2023-02-25T08:11:39.110Z,96933.02
2023-02-25T08:15:39.217Z,96933.38
2023-02-25T08:19:37.129Z,96934.27
2023-02-25T08:23:35.309Z,96943.99
2023-02-25T08:27:33.115Z,96946.15
2023-02-25T08:31:31.282Z,96948.52
2023-02-25T08:35:29.091Z,96950.30
2023-02-25T08:39:27.082Z,96950.84
2023-02-25T08:43:26.134Z,96969.06
2023-02-25T08:47:24.115Z,96974.49
2023-02-25T08:51:24.468Z,96977.63
2023-02-25T08:55:22.113Z,96964.87
2023-02-25T08:59:21.063Z,96964.27
2023-02-25T09:03:19.052Z,96960.89
2023-02-25T09:07:17.056Z,96966.74
2023-02-25T09:11:15.089Z,96966.34
2023-02-25T09:15:13.071Z,96960.59
2023-02-25T09:19:11.112Z,96958.17
2023-02-25T09:23:09.186Z,96957.33
2023-02-25T09:27:07.234Z,96950.41
2023-02-25T09:31:06.139Z,96959.97
2023-02-25T09:35:05.165Z,96958.98
2023-02-25T09:39:05.202Z,96954.27
2023-02-25T09:43:24.167Z,96952.80
2023-02-25T09:47:32.036Z,96952.09
2023-02-25T09:51:38.049Z,96947.24
2023-02-25T09:55:49.129Z,96946.48
2023-02-25T09:59:48.105Z,96945.67
2023-02-25T10:04:21.062Z,96949.02
2023-02-25T10:08:29.081Z,96946.92
2023-02-25T10:12:48.996Z,96945.38
2023-02-25T10:16:59.015Z,96943.23
2023-02-25T10:21:23.410Z,96938.48
2023-02-25T10:25:29.093Z,96932.98
2023-02-25T10:29:35.980Z,96926.65
2023-02-25T10:33:35.091Z,96923.71
2023-02-25T10:37:48.141Z,96916.55
2023-02-25T10:41:46.060Z,96920.25
2023-02-25T10:45:46.089Z,96926.77
2023-02-25T10:49:47.959Z,96929.69
2023-02-25T10:53:46.933Z,96927.64
2023-02-25T10:57:19.867Z,96933.80
2023-02-25T11:00:44.404Z,96932.30
2023-02-25T11:04:14.720Z,96928.23
2023-02-25T11:07:38.873Z,96927.52
2023-02-25T11:11:07.270Z,96927.00
2023-02-25T11:14:34.003Z,96923.83
2023-02-25T11:18:13.030Z,96922.42
2023-02-25T11:21:39.460Z,96914.04
2023-02-25T11:25:08.412Z,96908.20
2023-02-25T11:28:36.998Z,96909.14
2023-02-25T11:32:14.790Z,96901.97
2023-02-25T11:35:40.233Z,96891.27
2023-02-25T11:39:18.569Z,96888.30
2023-02-25T11:42:42.474Z,96894.73
2023-02-25T11:46:22.492Z,96895.33
2023-02-25T11:49:58.768Z,96890.23
2023-02-25T11:53:35.912Z,96889.25
2023-02-25T11:57:10.756Z,96896.13
2023-02-25T12:00:52.128Z,96892.93
2023-02-25T12:04:31.160Z,96902.14
2023-02-25T12:08:40.314Z,96898.65
2023-02-25T12:12:52.838Z,96895.02
2023-02-25T12:17:12.894Z,96886.10
2023-02-25T12:20:45.774Z,96887.02
2023-02-25T12:24:37.053Z,96888.52
2023-02-25T12:28:31.236Z,96898.07
2023-02-25T12:32:41.792Z,96894.58
2023-02-25T12:36:54.809Z,96892.21
2023-02-25T12:41:00.997Z,96884.59
2023-02-25T12:45:16.998Z,96892.52
2023-02-25T12:49:29.796Z,96901.36
2023-02-25T12:53:39.733Z,96916.33
2023-02-25T12:57:58.808Z,96918.47
2023-02-25T13:02:09.777Z,96913.52
2023-02-25T13:06:37.762Z,96914.30
2023-02-25T13:10:56.758Z,96916.17
2023-02-25T13:15:09.744Z,96922.55
2023-02-25T13:19:45.829Z,96919.63
2023-02-25T13:24:08.741Z,96923.28
2023-02-25T13:28:28.747Z,96914.39
2023-02-25T13:33:08.822Z,96911.59
2023-02-25T13:37:17.853Z,96908.55
2023-02-25T13:41:39.842Z,96917.24
2023-02-25T13:45:56.874Z,96922.51
2023-02-25T13:50:25.839Z,96919.02
2023-02-25T13:54:38.758Z,96918.61
2023-02-25T13:59:06.737Z,96918.59
2023-02-25T14:03:22.679Z,96923.78
2023-02-25T14:07:41.727Z,96927.30
2023-02-25T14:12:11.595Z,96936.39
2023-02-25T14:16:19.712Z,96942.46
2023-02-25T14:20:32.675Z,96950.80
2023-02-25T14:25:09.652Z,96946.14
2023-02-25T14:29:42.687Z,96951.16
2023-02-25T14:33:48.716Z,96961.30
2023-02-25T14:38:16.628Z,96996.81
2023-02-25T14:42:22.787Z,97006.70
2023-02-25T14:46:46.641Z,97012.20
2023-02-25T14:50:56.601Z,97023.20
2023-02-25T14:55:21.655Z,97015.23
2023-02-25T15:00:09.660Z,97022.36
2023-02-25T15:04:46.620Z,97021.81
2023-02-25T15:09:02.717Z,97031.29
2023-02-25T15:13:13.607Z,97037.55
2023-02-25T15:17:45.659Z,97042.48
2023-02-25T15:21:46.655Z,97052.52
2023-02-25T15:25:52.603Z,97055.42
2023-02-25T15:29:50.578Z,97060.75
2023-02-25T15:34:06.682Z,97062.70
2023-02-25T15:38:04.605Z,97065.83
2023-02-25T15:42:16.560Z,97069.27
2023-02-25T15:46:23.599Z,97078.70
2023-02-25T15:50:22.640Z,97080.06
2023-02-25T15:54:20.586Z,97081.59
2023-02-25T15:58:40.131Z,97084.91
2023-02-25T16:02:45.565Z,97089.30
2023-02-25T16:06:56.629Z,97094.67
2023-02-25T16:11:02.505Z,97104.33
2023-02-25T16:15:00.583Z,97101.21
2023-02-25T16:19:02.508Z,97108.67
2023-02-25T16:23:02.592Z,97113.65
2023-02-25T16:27:09.602Z,97123.92
2023-02-25T16:31:30.544Z,97126.50
2023-02-25T16:35:55.344Z,97140.83
2023-02-25T16:39:57.516Z,97146.10
2023-02-25T16:43:57.512Z,97150.73
2023-02-25T16:47:58.471Z,97158.70
2023-02-25T16:51:59.481Z,97175.17
2023-02-25T16:55:57.590Z,97176.41
2023-02-25T16:59:57.533Z,97183.10
2023-02-25T17:04:00.495Z,97184.11
2023-02-25T17:07:58.471Z,97191.70
2023-02-25T17:11:56.461Z,97200.21
2023-02-25T17:15:55.460Z,97202.86
2023-02-25T17:19:53.533Z,97202.06
2023-02-25T17:23:55.509Z,97206.15
2023-02-25T17:27:55.547Z,97206.48
2023-02-25T17:32:05.515Z,97209.77
2023-02-25T17:36:06.447Z,97213.04
2023-02-25T17:40:04.404Z,97215.41
2023-02-25T17:44:02.450Z,97223.23
2023-02-25T17:48:02.434Z,97221.01
2023-02-25T17:52:01.440Z,97225.11
2023-02-25T17:55:59.414Z,97223.56
2023-02-25T18:00:04.518Z,97228.23
2023-02-25T18:04:05.818Z,97232.34
2023-02-25T18:08:12.604Z,97238.45
2023-02-25T18:12:22.462Z,97243.18
2023-02-25T18:16:56.390Z,97248.53
2023-02-25T18:20:56.372Z,97255.48
2023-02-25T18:24:54.384Z,97263.90
2023-02-25T18:28:52.309Z,97265.49
2023-02-25T18:32:50.671Z,97269.33
2023-02-25T18:36:50.363Z,97272.53
2023-02-25T18:40:51.380Z,97276.35
2023-02-25T18:44:49.318Z,97281.67
2023-02-25T18:48:47.315Z,97292.92
2023-02-25T18:52:45.311Z,97299.14
2023-02-25T18:56:43.304Z,97300.48
2023-02-25T19:00:42.275Z,97311.84
2023-02-25T19:04:40.414Z,97317.30
2023-02-25T19:08:38.268Z,97318.35
2023-02-25T19:12:38.286Z,97323.21
2023-02-25T19:16:37.320Z,97328.38
2023-02-25T19:20:35.409Z,97339.11
2023-02-25T19:24:33.530Z,97345.01
2023-02-25T19:28:31.308Z,97349.66
2023-02-25T19:32:29.363Z,97358.86
2023-02-25T19:36:27.269Z,97367.91
2023-02-25T19:40:28.258Z,97378.86
2023-02-25T19:44:27.264Z,97381.88
2023-02-25T19:48:25.221Z,97390.83
2023-02-25T19:52:23.218Z,97393.16
2023-02-25T19:56:21.260Z,97399.72
2023-02-25T20:00:20.227Z,97406.40
2023-02-25T20:04:18.385Z,97415.73
2023-02-25T20:08:16.271Z,97421.90
2023-02-25T20:12:14.190Z,97422.95
2023-02-25T20:16:16.237Z,97423.80
2023-02-25T20:20:15.321Z,97425.10
2023-02-25T20:24:13.519Z,97428.81
2023-02-25T20:28:11.392Z,97435.45
2023-02-25T20:32:11.314Z,97443.25
2023-02-25T20:36:09.190Z,97449.48
2023-02-25T20:40:15.251Z,97451.49
2023-02-25T20:44:13.246Z,97454.10
2023-02-25T20:48:11.214Z,97454.08
2023-02-25T20:52:09.109Z,97455.57
2023-02-25T20:56:09.237Z,97459.20
2023-02-25T21:00:09.191Z,97461.18
2023-02-25T21:04:07.191Z,97456.57
2023-02-25T21:08:05.122Z,97456.36
2023-02-25T21:12:03.271Z,97457.14
2023-02-25T21:16:01.153Z,97462.03
2023-02-25T21:19:59.197Z,97461.31
2023-02-25T21:23:59.081Z,97471.08
2023-02-25T21:28:03.314Z,97474.66
2023-02-25T21:32:02.086Z,97478.42
2023-02-25T21:36:06.160Z,97481.08
2023-02-25T21:40:04.080Z,97482.05
2023-02-25T21:44:02.114Z,97488.70
2023-02-25T21:48:00.358Z,97496.65
2023-02-25T21:51:58.114Z,97504.73
2023-02-25T21:55:56.082Z,97512.77
2023-02-25T21:59:54.108Z,97518.45
2023-02-25T22:03:52.162Z,97519.97
2023-02-25T22:07:50.137Z,97525.77
2023-02-25T22:11:51.028Z,97529.48
2023-02-25T22:15:50.100Z,97530.37
2023-02-25T22:19:48.087Z,97533.63
2023-02-25T22:23:46.077Z,97540.93
2023-02-25T22:27:44.002Z,97543.54
2023-02-25T22:31:42.155Z,97547.57
2023-02-25T22:35:40.027Z,97555.86
2023-02-25T22:39:38.006Z,97563.80
2023-02-25T22:43:35.988Z,97574.02
2023-02-25T22:47:34.002Z,97577.69
2023-02-25T22:51:38.967Z,97585.73
2023-02-25T22:55:37.075Z,97586.59
2023-02-25T22:59:35.079Z,97591.23
2023-02-25T23:03:33.013Z,97596.95
2023-02-25T23:07:30.969Z,97599.14
2023-02-25T23:11:30.982Z,97606.86
2023-02-25T23:15:28.954Z,97620.89
2023-02-25T23:19:30.068Z,97626.15
2023-02-25T23:23:27.942Z,97634.42
2023-02-25T23:27:25.990Z,97637.80
2023-02-25T23:31:34.996Z,97643.52
2023-02-25T23:35:33.060Z,97653.55
2023-02-25T23:39:31.001Z,97651.95
2023-02-25T23:43:28.970Z,97652.55
2023-02-25T23:47:26.901Z,97653.84
2023-02-25T23:51:24.912Z,97662.16
2023-02-25T23:55:22.904Z,97669.61
2023-02-25T23:59:21.918Z,97672.48
